sensor_id;sensor_type;location;lat;lon;timestamp;P1;durP1;ratioP1;P2;durP2;ratioP2
4909;SDS011;2470;49.868;8.660;2023-04-24T00:02:07;1.53;;;1.10;;
4909;SDS011;2470;49.868;8.660;2023-04-24T00:04:34;1.53;;;1.00;;
4909;SDS011;2470;49.868;8.660;2023-04-24T00:06:59;1.57;;;1.20;;
4909;SDS011;2470;49.868;8.660;2023-04-24T00:09:25;1.20;;;0.90;;
4909;SDS011;2470;49.868;8.660;2023-04-24T00:11:51;2.60;;;1.20;;
4909;SDS011;2470;49.868;8.660;2023-04-24T00:14:17;3.40;;;1.13;;
4909;SDS011;2470;49.868;8.660;2023-04-24T00:16:43;1.73;;;1.23;;
4909;SDS011;2470;49.868;8.660;2023-04-24T00:19:08;1.10;;;0.93;;
4909;SDS011;2470;49.868;8.660;2023-04-24T00:21:34;1.57;;;1.40;;
4909;SDS011;2470;49.868;8.660;2023-04-24T00:24:00;1.07;;;0.97;;
4909;SDS011;2470;49.868;8.660;2023-04-24T00:26:25;3.37;;;1.50;;
4909;SDS011;2470;49.868;8.660;2023-04-24T00:28:51;1.40;;;0.93;;
4909;SDS011;2470;49.868;8.660;2023-04-24T00:31:16;1.50;;;1.30;;
4909;SDS011;2470;49.868;8.660;2023-04-24T00:33:42;1.10;;;0.90;;
4909;SDS011;2470;49.868;8.660;2023-04-24T00:36:07;1.30;;;1.10;;
4909;SDS011;2470;49.868;8.660;2023-04-24T00:38:33;1.53;;;1.07;;
4909;SDS011;2470;49.868;8.660;2023-04-24T00:40:58;1.80;;;0.80;;
4909;SDS011;2470;49.868;8.660;2023-04-24T00:43:24;1.00;;;1.00;;
4909;SDS011;2470;49.868;8.660;2023-04-24T00:45:50;2.33;;;1.10;;
4909;SDS011;2470;49.868;8.660;2023-04-24T00:48:16;0.90;;;0.90;;
4909;SDS011;2470;49.868;8.660;2023-04-24T00:50:41;1.27;;;1.00;;
4909;SDS011;2470;49.868;8.660;2023-04-24T00:53:07;1.73;;;1.40;;
4909;SDS011;2470;49.868;8.660;2023-04-24T00:55:33;1.20;;;1.10;;
4909;SDS011;2470;49.868;8.660;2023-04-24T00:57:58;1.53;;;1.33;;
4909;SDS011;2470;49.868;8.660;2023-04-24T01:00:24;1.10;;;1.00;;
4909;SDS011;2470;49.868;8.660;2023-04-24T01:02:50;1.53;;;1.20;;
4909;SDS011;2470;49.868;8.660;2023-04-24T01:05:17;3.60;;;1.27;;
4909;SDS011;2470;49.868;8.660;2023-04-24T01:07:44;1.20;;;1.10;;
4909;SDS011;2470;49.868;8.660;2023-04-24T01:10:13;1.90;;;1.20;;
4909;SDS011;2470;49.868;8.660;2023-04-24T01:12:39;2.43;;;1.40;;
4909;SDS011;2470;49.868;8.660;2023-04-24T01:15:05;2.83;;;1.30;;
4909;SDS011;2470;49.868;8.660;2023-04-24T01:17:32;1.20;;;1.00;;
4909;SDS011;2470;49.868;8.660;2023-04-24T01:19:58;1.20;;;0.93;;
4909;SDS011;2470;49.868;8.660;2023-04-24T01:22:24;1.03;;;0.93;;
4909;SDS011;2470;49.868;8.660;2023-04-24T01:24:51;2.30;;;1.40;;
4909;SDS011;2470;49.868;8.660;2023-04-24T01:27:18;2.67;;;1.63;;
4909;SDS011;2470;49.868;8.660;2023-04-24T01:29:45;1.67;;;1.00;;
4909;SDS011;2470;49.868;8.660;2023-04-24T01:32:12;1.40;;;1.07;;
4909;SDS011;2470;49.868;8.660;2023-04-24T01:34:38;1.80;;;1.03;;
4909;SDS011;2470;49.868;8.660;2023-04-24T01:37:03;1.00;;;0.90;;
4909;SDS011;2470;49.868;8.660;2023-04-24T01:39:31;1.67;;;0.90;;
4909;SDS011;2470;49.868;8.660;2023-04-24T01:41:58;4.97;;;1.10;;
4909;SDS011;2470;49.868;8.660;2023-04-24T01:44:23;0.90;;;0.90;;
4909;SDS011;2470;49.868;8.660;2023-04-24T01:46:49;1.93;;;1.43;;
4909;SDS011;2470;49.868;8.660;2023-04-24T01:49:15;4.00;;;1.47;;
4909;SDS011;2470;49.868;8.660;2023-04-24T01:51:40;2.17;;;1.03;;
4909;SDS011;2470;49.868;8.660;2023-04-24T01:54:06;1.77;;;1.33;;
4909;SDS011;2470;49.868;8.660;2023-04-24T01:56:33;0.90;;;0.80;;
4909;SDS011;2470;49.868;8.660;2023-04-24T01:59:02;2.03;;;1.20;;
4909;SDS011;2470;49.868;8.660;2023-04-24T02:01:33;1.23;;;1.07;;
4909;SDS011;2470;49.868;8.660;2023-04-24T02:04:00;1.13;;;1.00;;
4909;SDS011;2470;49.868;8.660;2023-04-24T02:06:26;0.80;;;0.80;;
4909;SDS011;2470;49.868;8.660;2023-04-24T02:08:51;1.00;;;1.00;;
4909;SDS011;2470;49.868;8.660;2023-04-24T02:11:17;2.50;;;1.13;;
4909;SDS011;2470;49.868;8.660;2023-04-24T02:13:43;1.50;;;1.00;;
4909;SDS011;2470;49.868;8.660;2023-04-24T02:16:09;3.00;;;1.10;;
4909;SDS011;2470;49.868;8.660;2023-04-24T02:18:34;2.87;;;1.03;;
4909;SDS011;2470;49.868;8.660;2023-04-24T02:21:00;1.10;;;1.00;;
4909;SDS011;2470;49.868;8.660;2023-04-24T02:23:25;2.50;;;1.10;;
4909;SDS011;2470;49.868;8.660;2023-04-24T02:25:52;3.63;;;1.20;;
4909;SDS011;2470;49.868;8.660;2023-04-24T02:28:18;1.93;;;1.57;;
4909;SDS011;2470;49.868;8.660;2023-04-24T02:30:44;0.90;;;0.90;;
4909;SDS011;2470;49.868;8.660;2023-04-24T02:33:10;1.43;;;1.33;;
4909;SDS011;2470;49.868;8.660;2023-04-24T02:35:36;5.23;;;1.20;;
4909;SDS011;2470;49.868;8.660;2023-04-24T02:38:02;1.43;;;1.20;;
4909;SDS011;2470;49.868;8.660;2023-04-24T02:40:28;1.30;;;1.00;;
4909;SDS011;2470;49.868;8.660;2023-04-24T02:42:54;1.43;;;1.33;;
4909;SDS011;2470;49.868;8.660;2023-04-24T02:45:19;1.30;;;0.90;;
4909;SDS011;2470;49.868;8.660;2023-04-24T02:47:45;1.13;;;1.03;;
4909;SDS011;2470;49.868;8.660;2023-04-24T02:50:10;1.30;;;1.20;;
4909;SDS011;2470;49.868;8.660;2023-04-24T02:52:36;1.30;;;1.20;;
4909;SDS011;2470;49.868;8.660;2023-04-24T02:55:01;1.17;;;1.07;;
4909;SDS011;2470;49.868;8.660;2023-04-24T02:57:27;1.17;;;1.07;;
4909;SDS011;2470;49.868;8.660;2023-04-24T02:59:53;1.23;;;1.13;;
4909;SDS011;2470;49.868;8.660;2023-04-24T03:02:18;3.00;;;1.63;;
4909;SDS011;2470;49.868;8.660;2023-04-24T03:04:45;1.10;;;1.00;;
4909;SDS011;2470;49.868;8.660;2023-04-24T03:07:12;3.83;;;1.20;;
4909;SDS011;2470;49.868;8.660;2023-04-24T03:09:39;2.27;;;1.20;;
4909;SDS011;2470;49.868;8.660;2023-04-24T03:12:05;2.50;;;1.50;;
4909;SDS011;2470;49.868;8.660;2023-04-24T03:14:30;1.80;;;1.47;;
4909;SDS011;2470;49.868;8.660;2023-04-24T03:16:56;3.57;;;1.57;;
4909;SDS011;2470;49.868;8.660;2023-04-24T03:19:21;1.37;;;1.23;;
4909;SDS011;2470;49.868;8.660;2023-04-24T03:21:47;2.33;;;1.27;;
4909;SDS011;2470;49.868;8.660;2023-04-24T03:24:13;1.80;;;1.50;;
4909;SDS011;2470;49.868;8.660;2023-04-24T03:26:38;1.13;;;1.03;;
4909;SDS011;2470;49.868;8.660;2023-04-24T03:29:04;1.50;;;1.30;;
4909;SDS011;2470;49.868;8.660;2023-04-24T03:31:29;1.27;;;1.17;;
4909;SDS011;2470;49.868;8.660;2023-04-24T03:33:55;1.43;;;1.33;;
4909;SDS011;2470;49.868;8.660;2023-04-24T03:36:20;1.20;;;1.10;;
4909;SDS011;2470;49.868;8.660;2023-04-24T03:38:46;1.60;;;1.23;;
4909;SDS011;2470;49.868;8.660;2023-04-24T03:41:11;1.93;;;1.40;;
4909;SDS011;2470;49.868;8.660;2023-04-24T03:43:37;1.90;;;1.33;;
4909;SDS011;2470;49.868;8.660;2023-04-24T03:46:03;3.57;;;1.30;;
4909;SDS011;2470;49.868;8.660;2023-04-24T03:48:29;2.40;;;1.27;;
4909;SDS011;2470;49.868;8.660;2023-04-24T03:50:55;0.90;;;0.90;;
4909;SDS011;2470;49.868;8.660;2023-04-24T03:53:20;3.73;;;1.50;;
4909;SDS011;2470;49.868;8.660;2023-04-24T03:55:46;1.30;;;1.20;;
4909;SDS011;2470;49.868;8.660;2023-04-24T03:58:11;3.63;;;1.30;;
4909;SDS011;2470;49.868;8.660;2023-04-24T04:00:39;2.60;;;1.33;;
4909;SDS011;2470;49.868;8.660;2023-04-24T04:03:05;1.20;;;1.10;;
4909;SDS011;2470;49.868;8.660;2023-04-24T04:05:31;1.57;;;1.47;;
4909;SDS011;2470;49.868;8.660;2023-04-24T04:07:56;1.43;;;1.33;;
4909;SDS011;2470;49.868;8.660;2023-04-24T04:10:22;1.27;;;1.10;;
4909;SDS011;2470;49.868;8.660;2023-04-24T04:12:47;2.80;;;1.27;;
4909;SDS011;2470;49.868;8.660;2023-04-24T04:15:13;1.43;;;1.30;;
4909;SDS011;2470;49.868;8.660;2023-04-24T04:17:38;3.87;;;1.57;;
4909;SDS011;2470;49.868;8.660;2023-04-24T04:20:04;2.73;;;1.17;;
4909;SDS011;2470;49.868;8.660;2023-04-24T04:22:35;1.30;;;1.20;;
4909;SDS011;2470;49.868;8.660;2023-04-24T04:25:01;1.73;;;1.50;;
4909;SDS011;2470;49.868;8.660;2023-04-24T04:27:27;9.53;;;1.90;;
4909;SDS011;2470;49.868;8.660;2023-04-24T04:29:54;2.37;;;1.77;;
4909;SDS011;2470;49.868;8.660;2023-04-24T04:32:21;2.60;;;2.00;;
4909;SDS011;2470;49.868;8.660;2023-04-24T04:34:47;1.40;;;1.30;;
4909;SDS011;2470;49.868;8.660;2023-04-24T04:37:14;1.83;;;1.53;;
4909;SDS011;2470;49.868;8.660;2023-04-24T04:39:39;1.97;;;1.50;;
4909;SDS011;2470;49.868;8.660;2023-04-24T04:42:05;4.73;;;1.80;;
4909;SDS011;2470;49.868;8.660;2023-04-24T04:44:31;2.10;;;1.60;;
4909;SDS011;2470;49.868;8.660;2023-04-24T04:46:57;2.03;;;1.73;;
4909;SDS011;2470;49.868;8.660;2023-04-24T04:49:24;2.40;;;1.63;;
4909;SDS011;2470;49.868;8.660;2023-04-24T04:51:49;2.03;;;1.83;;
4909;SDS011;2470;49.868;8.660;2023-04-24T04:54:15;1.97;;;1.80;;
4909;SDS011;2470;49.868;8.660;2023-04-24T04:56:41;4.40;;;2.13;;
4909;SDS011;2470;49.868;8.660;2023-04-24T04:59:07;2.40;;;2.20;;
4909;SDS011;2470;49.868;8.660;2023-04-24T05:01:32;1.70;;;1.43;;
4909;SDS011;2470;49.868;8.660;2023-04-24T05:03:58;4.43;;;2.00;;
4909;SDS011;2470;49.868;8.660;2023-04-24T05:06:23;5.63;;;1.77;;
4909;SDS011;2470;49.868;8.660;2023-04-24T05:08:49;2.63;;;2.07;;
4909;SDS011;2470;49.868;8.660;2023-04-24T05:11:14;2.00;;;1.83;;
4909;SDS011;2470;49.868;8.660;2023-04-24T05:13:40;1.73;;;1.63;;
4909;SDS011;2470;49.868;8.660;2023-04-24T05:16:06;1.93;;;1.70;;
4909;SDS011;2470;49.868;8.660;2023-04-24T05:18:31;3.40;;;2.00;;
4909;SDS011;2470;49.868;8.660;2023-04-24T05:20:57;1.77;;;1.67;;
4909;SDS011;2470;49.868;8.660;2023-04-24T05:23:22;3.03;;;2.20;;
4909;SDS011;2470;49.868;8.660;2023-04-24T05:25:48;4.00;;;2.60;;
4909;SDS011;2470;49.868;8.660;2023-04-24T05:28:16;4.10;;;2.00;;
4909;SDS011;2470;49.868;8.660;2023-04-24T05:30:42;3.43;;;1.93;;
4909;SDS011;2470;49.868;8.660;2023-04-24T05:33:07;2.20;;;2.00;;
4909;SDS011;2470;49.868;8.660;2023-04-24T05:35:33;2.53;;;2.33;;
4909;SDS011;2470;49.868;8.660;2023-04-24T05:37:59;2.20;;;2.00;;
4909;SDS011;2470;49.868;8.660;2023-04-24T05:40:25;2.50;;;2.17;;
4909;SDS011;2470;49.868;8.660;2023-04-24T05:42:50;5.70;;;2.73;;
4909;SDS011;2470;49.868;8.660;2023-04-24T05:45:16;3.17;;;2.23;;
4909;SDS011;2470;49.868;8.660;2023-04-24T05:47:42;5.63;;;2.50;;
4909;SDS011;2470;49.868;8.660;2023-04-24T05:50:11;4.43;;;2.17;;
4909;SDS011;2470;49.868;8.660;2023-04-24T05:52:36;3.93;;;2.43;;
4909;SDS011;2470;49.868;8.660;2023-04-24T05:55:05;5.13;;;2.47;;
4909;SDS011;2470;49.868;8.660;2023-04-24T05:57:31;2.40;;;2.20;;
4909;SDS011;2470;49.868;8.660;2023-04-24T05:59:56;3.93;;;2.10;;
4909;SDS011;2470;49.868;8.660;2023-04-24T06:02:22;2.43;;;2.10;;
4909;SDS011;2470;49.868;8.660;2023-04-24T06:04:47;5.63;;;2.50;;
4909;SDS011;2470;49.868;8.660;2023-04-24T06:07:13;2.87;;;2.50;;
4909;SDS011;2470;49.868;8.660;2023-04-24T06:09:38;3.33;;;2.10;;
4909;SDS011;2470;49.868;8.660;2023-04-24T06:12:04;3.10;;;2.20;;
4909;SDS011;2470;49.868;8.660;2023-04-24T06:14:32;2.90;;;2.10;;
4909;SDS011;2470;49.868;8.660;2023-04-24T06:16:57;2.73;;;2.30;;
4909;SDS011;2470;49.868;8.660;2023-04-24T06:19:23;2.70;;;2.03;;
4909;SDS011;2470;49.868;8.660;2023-04-24T06:21:49;3.97;;;2.40;;
4909;SDS011;2470;49.868;8.660;2023-04-24T06:24:14;2.50;;;2.30;;
4909;SDS011;2470;49.868;8.660;2023-04-24T06:26:41;3.77;;;2.20;;
4909;SDS011;2470;49.868;8.660;2023-04-24T06:29:07;2.43;;;2.10;;
4909;SDS011;2470;49.868;8.660;2023-04-24T06:31:32;2.53;;;2.33;;
4909;SDS011;2470;49.868;8.660;2023-04-24T06:34:02;2.50;;;2.30;;
4909;SDS011;2470;49.868;8.660;2023-04-24T06:36:28;3.20;;;2.53;;
4909;SDS011;2470;49.868;8.660;2023-04-24T06:38:55;10.43;;;2.60;;
4909;SDS011;2470;49.868;8.660;2023-04-24T06:41:22;4.67;;;2.47;;
4909;SDS011;2470;49.868;8.660;2023-04-24T06:43:47;3.27;;;2.43;;
4909;SDS011;2470;49.868;8.660;2023-04-24T06:46:13;3.83;;;2.53;;
4909;SDS011;2470;49.868;8.660;2023-04-24T06:48:39;3.23;;;2.70;;
4909;SDS011;2470;49.868;8.660;2023-04-24T06:51:04;3.80;;;2.40;;
4909;SDS011;2470;49.868;8.660;2023-04-24T06:53:30;3.70;;;2.60;;
4909;SDS011;2470;49.868;8.660;2023-04-24T06:55:55;4.73;;;3.40;;
4909;SDS011;2470;49.868;8.660;2023-04-24T06:58:21;5.00;;;2.90;;
4909;SDS011;2470;49.868;8.660;2023-04-24T07:00:46;8.10;;;4.17;;
4909;SDS011;2470;49.868;8.660;2023-04-24T07:03:12;5.67;;;2.50;;
4909;SDS011;2470;49.868;8.660;2023-04-24T07:05:37;3.47;;;2.47;;
4909;SDS011;2470;49.868;8.660;2023-04-24T07:08:08;4.60;;;3.20;;
4909;SDS011;2470;49.868;8.660;2023-04-24T07:10:37;4.93;;;2.93;;
4909;SDS011;2470;49.868;8.660;2023-04-24T07:13:03;3.90;;;3.03;;
4909;SDS011;2470;49.868;8.660;2023-04-24T07:15:29;9.63;;;3.23;;
4909;SDS011;2470;49.868;8.660;2023-04-24T07:17:55;4.73;;;3.20;;
4909;SDS011;2470;49.868;8.660;2023-04-24T07:20:21;2.70;;;2.20;;
4909;SDS011;2470;49.868;8.660;2023-04-24T07:22:46;5.30;;;3.30;;
4909;SDS011;2470;49.868;8.660;2023-04-24T07:25:13;5.20;;;2.73;;
4909;SDS011;2470;49.868;8.660;2023-04-24T07:27:38;3.53;;;2.57;;
4909;SDS011;2470;49.868;8.660;2023-04-24T07:30:04;4.30;;;2.93;;
4909;SDS011;2470;49.868;8.660;2023-04-24T07:32:31;4.17;;;2.93;;
4909;SDS011;2470;49.868;8.660;2023-04-24T07:34:57;6.13;;;3.23;;
4909;SDS011;2470;49.868;8.660;2023-04-24T07:37:22;4.53;;;2.90;;
4909;SDS011;2470;49.868;8.660;2023-04-24T07:39:48;4.37;;;3.13;;
4909;SDS011;2470;49.868;8.660;2023-04-24T07:42:14;3.30;;;2.90;;
4909;SDS011;2470;49.868;8.660;2023-04-24T07:44:40;4.37;;;3.70;;
4909;SDS011;2470;49.868;8.660;2023-04-24T07:47:05;4.63;;;2.83;;
4909;SDS011;2470;49.868;8.660;2023-04-24T07:49:31;5.07;;;3.40;;
4909;SDS011;2470;49.868;8.660;2023-04-24T07:51:58;4.27;;;2.73;;
4909;SDS011;2470;49.868;8.660;2023-04-24T07:54:25;3.60;;;2.93;;
4909;SDS011;2470;49.868;8.660;2023-04-24T07:56:51;3.50;;;2.90;;
4909;SDS011;2470;49.868;8.660;2023-04-24T07:59:16;4.73;;;2.87;;
4909;SDS011;2470;49.868;8.660;2023-04-24T08:01:42;2.40;;;2.00;;
4909;SDS011;2470;49.868;8.660;2023-04-24T08:04:07;4.40;;;2.23;;
4909;SDS011;2470;49.868;8.660;2023-04-24T08:06:33;4.30;;;2.70;;
4909;SDS011;2470;49.868;8.660;2023-04-24T08:08:59;2.40;;;1.63;;
4909;SDS011;2470;49.868;8.660;2023-04-24T08:11:25;1.57;;;1.37;;
4909;SDS011;2470;49.868;8.660;2023-04-24T08:13:51;2.77;;;1.60;;
4909;SDS011;2470;49.868;8.660;2023-04-24T08:16:16;1.57;;;1.43;;
4909;SDS011;2470;49.868;8.660;2023-04-24T08:18:42;1.93;;;1.30;;
4909;SDS011;2470;49.868;8.660;2023-04-24T08:21:07;1.60;;;1.50;;
4909;SDS011;2470;49.868;8.660;2023-04-24T08:23:33;1.87;;;1.43;;
4909;SDS011;2470;49.868;8.660;2023-04-24T08:25:58;5.70;;;2.83;;
4909;SDS011;2470;49.868;8.660;2023-04-24T08:28:24;2.20;;;1.63;;
4909;SDS011;2470;49.868;8.660;2023-04-24T08:30:50;3.50;;;2.47;;
4909;SDS011;2470;49.868;8.660;2023-04-24T08:33:20;2.10;;;1.67;;
4909;SDS011;2470;49.868;8.660;2023-04-24T08:35:46;5.00;;;1.80;;
4909;SDS011;2470;49.868;8.660;2023-04-24T08:38:12;2.90;;;1.77;;
4909;SDS011;2470;49.868;8.660;2023-04-24T08:40:38;3.77;;;1.93;;
4909;SDS011;2470;49.868;8.660;2023-04-24T08:43:04;1.53;;;1.43;;
4909;SDS011;2470;49.868;8.660;2023-04-24T08:45:30;2.87;;;1.60;;
4909;SDS011;2470;49.868;8.660;2023-04-24T08:47:57;2.17;;;1.80;;
4909;SDS011;2470;49.868;8.660;2023-04-24T08:50:24;1.80;;;1.70;;
4909;SDS011;2470;49.868;8.660;2023-04-24T08:52:50;3.93;;;2.07;;
4909;SDS011;2470;49.868;8.660;2023-04-24T08:55:18;3.20;;;1.97;;
4909;SDS011;2470;49.868;8.660;2023-04-24T08:57:45;2.50;;;2.07;;
4909;SDS011;2470;49.868;8.660;2023-04-24T09:00:18;3.13;;;1.90;;
4909;SDS011;2470;49.868;8.660;2023-04-24T09:02:45;5.10;;;3.40;;
4909;SDS011;2470;49.868;8.660;2023-04-24T09:05:13;2.97;;;2.30;;
4909;SDS011;2470;49.868;8.660;2023-04-24T09:07:41;2.93;;;1.97;;
4909;SDS011;2470;49.868;8.660;2023-04-24T09:10:09;2.40;;;2.20;;
4909;SDS011;2470;49.868;8.660;2023-04-24T09:12:36;3.60;;;2.53;;
4909;SDS011;2470;49.868;8.660;2023-04-24T09:15:02;2.20;;;1.90;;
4909;SDS011;2470;49.868;8.660;2023-04-24T09:17:30;2.10;;;1.87;;
4909;SDS011;2470;49.868;8.660;2023-04-24T09:19:55;2.50;;;1.93;;
4909;SDS011;2470;49.868;8.660;2023-04-24T09:22:21;2.13;;;1.93;;
4909;SDS011;2470;49.868;8.660;2023-04-24T09:24:46;3.30;;;2.40;;
4909;SDS011;2470;49.868;8.660;2023-04-24T09:27:13;3.90;;;2.83;;
4909;SDS011;2470;49.868;8.660;2023-04-24T09:29:39;2.43;;;1.70;;
4909;SDS011;2470;49.868;8.660;2023-04-24T09:32:19;2.13;;;1.83;;
4909;SDS011;2470;49.868;8.660;2023-04-24T09:34:47;2.50;;;1.90;;
4909;SDS011;2470;49.868;8.660;2023-04-24T09:37:29;2.90;;;1.97;;
4909;SDS011;2470;49.868;8.660;2023-04-24T09:40:14;2.47;;;2.27;;
4909;SDS011;2470;49.868;8.660;2023-04-24T09:42:53;2.40;;;2.20;;
4909;SDS011;2470;49.868;8.660;2023-04-24T09:45:35;2.13;;;1.80;;
4909;SDS011;2470;49.868;8.660;2023-04-24T09:48:02;2.17;;;1.80;;
4909;SDS011;2470;49.868;8.660;2023-04-24T09:50:29;2.57;;;1.90;;
4909;SDS011;2470;49.868;8.660;2023-04-24T09:52:57;2.43;;;1.97;;
4909;SDS011;2470;49.868;8.660;2023-04-24T09:55:26;9.53;;;2.17;;
4909;SDS011;2470;49.868;8.660;2023-04-24T10:00:25;2.27;;;2.07;;
4909;SDS011;2470;49.868;8.660;2023-04-24T10:03:04;3.33;;;1.77;;
4909;SDS011;2470;49.868;8.660;2023-04-24T10:05:34;2.13;;;1.63;;
4909;SDS011;2470;49.868;8.660;2023-04-24T10:10:33;2.80;;;1.93;;
4909;SDS011;2470;49.868;8.660;2023-04-24T10:13:01;1.90;;;1.40;;
4909;SDS011;2470;49.868;8.660;2023-04-24T10:15:28;2.03;;;1.70;;
4909;SDS011;2470;49.868;8.660;2023-04-24T10:17:55;3.70;;;2.17;;
4909;SDS011;2470;49.868;8.660;2023-04-24T10:20:24;3.43;;;2.40;;
4909;SDS011;2470;49.868;8.660;2023-04-24T10:22:53;2.93;;;1.57;;
4909;SDS011;2470;49.868;8.660;2023-04-24T10:25:20;2.03;;;1.77;;
4909;SDS011;2470;49.868;8.660;2023-04-24T10:27:47;2.90;;;2.00;;
4909;SDS011;2470;49.868;8.660;2023-04-24T10:30:14;2.37;;;1.73;;
4909;SDS011;2470;49.868;8.660;2023-04-24T10:32:40;2.73;;;2.10;;
4909;SDS011;2470;49.868;8.660;2023-04-24T10:35:06;2.23;;;2.00;;
4909;SDS011;2470;49.868;8.660;2023-04-24T10:37:36;2.43;;;1.93;;
4909;SDS011;2470;49.868;8.660;2023-04-24T10:40:06;2.60;;;2.10;;
4909;SDS011;2470;49.868;8.660;2023-04-24T10:42:33;4.57;;;1.50;;
4909;SDS011;2470;49.868;8.660;2023-04-24T10:44:59;3.03;;;2.17;;
4909;SDS011;2470;49.868;8.660;2023-04-24T10:47:29;1.70;;;1.50;;
4909;SDS011;2470;49.868;8.660;2023-04-24T10:50:07;3.53;;;2.13;;
4909;SDS011;2470;49.868;8.660;2023-04-24T10:52:48;2.03;;;1.83;;
4909;SDS011;2470;49.868;8.660;2023-04-24T10:58:08;3.03;;;1.80;;
4909;SDS011;2470;49.868;8.660;2023-04-24T11:00:36;1.60;;;1.47;;
4909;SDS011;2470;49.868;8.660;2023-04-24T11:03:04;1.57;;;1.47;;
4909;SDS011;2470;49.868;8.660;2023-04-24T11:05:53;2.63;;;2.00;;
4909;SDS011;2470;49.868;8.660;2023-04-24T11:16:25;2.30;;;1.80;;
4909;SDS011;2470;49.868;8.660;2023-04-24T11:19:05;4.63;;;2.03;;
4909;SDS011;2470;49.868;8.660;2023-04-24T11:21:31;2.10;;;1.90;;
4909;SDS011;2470;49.868;8.660;2023-04-24T11:25:00;6.17;;;2.73;;
4909;SDS011;2470;49.868;8.660;2023-04-24T11:27:15;2.07;;;1.93;;
4909;SDS011;2470;49.868;8.660;2023-04-24T11:34:57;3.17;;;2.30;;
4909;SDS011;2470;49.868;8.660;2023-04-24T11:37:44;3.00;;;2.47;;
4909;SDS011;2470;49.868;8.660;2023-04-24T11:40:12;3.07;;;2.33;;
4909;SDS011;2470;49.868;8.660;2023-04-24T11:42:40;3.50;;;2.93;;
4909;SDS011;2470;49.868;8.660;2023-04-24T11:45:17;6.73;;;2.83;;
4909;SDS011;2470;49.868;8.660;2023-04-24T11:47:46;3.57;;;2.57;;
4909;SDS011;2470;49.868;8.660;2023-04-24T11:50:12;2.40;;;2.00;;
4909;SDS011;2470;49.868;8.660;2023-04-24T11:52:39;2.50;;;2.30;;
4909;SDS011;2470;49.868;8.660;2023-04-24T11:55:07;4.63;;;3.10;;
4909;SDS011;2470;49.868;8.660;2023-04-24T11:57:37;6.03;;;3.47;;
4909;SDS011;2470;49.868;8.660;2023-04-24T12:00:03;3.93;;;2.57;;
4909;SDS011;2470;49.868;8.660;2023-04-24T12:02:30;2.73;;;2.00;;
4909;SDS011;2470;49.868;8.660;2023-04-24T12:04:56;2.60;;;2.17;;
4909;SDS011;2470;49.868;8.660;2023-04-24T12:07:22;2.33;;;2.13;;
4909;SDS011;2470;49.868;8.660;2023-04-24T12:09:55;2.40;;;2.20;;
4909;SDS011;2470;49.868;8.660;2023-04-24T12:12:23;3.60;;;2.50;;
4909;SDS011;2470;49.868;8.660;2023-04-24T12:17:30;2.23;;;1.60;;
4909;SDS011;2470;49.868;8.660;2023-04-24T12:20:01;4.70;;;2.10;;
4909;SDS011;2470;49.868;8.660;2023-04-24T12:22:45;2.43;;;1.70;;
4909;SDS011;2470;49.868;8.660;2023-04-24T12:25:16;2.30;;;2.03;;
4909;SDS011;2470;49.868;8.660;2023-04-24T12:27:45;4.30;;;2.27;;
4909;SDS011;2470;49.868;8.660;2023-04-24T12:30:15;1.57;;;1.47;;
4909;SDS011;2470;49.868;8.660;2023-04-24T12:32:45;2.47;;;1.80;;
4909;SDS011;2470;49.868;8.660;2023-04-24T12:35:21;3.00;;;2.08;;
4909;SDS011;2470;49.868;8.660;2023-04-24T12:37:48;2.10;;;1.95;;
4909;SDS011;2470;49.868;8.660;2023-04-24T12:40:14;4.15;;;2.13;;
4909;SDS011;2470;49.868;8.660;2023-04-24T12:42:47;1.92;;;1.83;;
4909;SDS011;2470;49.868;8.660;2023-04-24T12:45:15;2.05;;;1.85;;
4909;SDS011;2470;49.868;8.660;2023-04-24T12:47:42;3.10;;;1.70;;
4909;SDS011;2470;49.868;8.660;2023-04-24T12:50:09;1.95;;;1.73;;
4909;SDS011;2470;49.868;8.660;2023-04-24T12:52:36;2.63;;;1.65;;
4909;SDS011;2470;49.868;8.660;2023-04-24T12:55:02;5.43;;;1.40;;
4909;SDS011;2470;49.868;8.660;2023-04-24T12:57:30;3.08;;;1.55;;
4909;SDS011;2470;49.868;8.660;2023-04-24T12:59:56;2.00;;;1.67;;
4909;SDS011;2470;49.868;8.660;2023-04-24T13:02:23;1.80;;;1.70;;
4909;SDS011;2470;49.868;8.660;2023-04-24T13:04:58;2.70;;;2.03;;
4909;SDS011;2470;49.868;8.660;2023-04-24T13:07:24;3.05;;;1.92;;
4909;SDS011;2470;49.868;8.660;2023-04-24T13:09:50;2.13;;;2.00;;
4909;SDS011;2470;49.868;8.660;2023-04-24T13:12:16;2.42;;;1.90;;
4909;SDS011;2470;49.868;8.660;2023-04-24T13:14:42;10.05;;;1.88;;
4909;SDS011;2470;49.868;8.660;2023-04-24T13:17:08;2.20;;;1.67;;
4909;SDS011;2470;49.868;8.660;2023-04-24T13:19:37;2.30;;;2.10;;
4909;SDS011;2470;49.868;8.660;2023-04-24T13:22:04;3.40;;;2.35;;
4909;SDS011;2470;49.868;8.660;2023-04-24T13:24:30;2.10;;;1.90;;
4909;SDS011;2470;49.868;8.660;2023-04-24T13:26:57;3.38;;;2.50;;
4909;SDS011;2470;49.868;8.660;2023-04-24T13:29:23;3.88;;;2.28;;
4909;SDS011;2470;49.868;8.660;2023-04-24T13:31:51;2.83;;;2.47;;
4909;SDS011;2470;49.868;8.660;2023-04-24T13:34:19;4.30;;;1.90;;
4909;SDS011;2470;49.868;8.660;2023-04-24T13:36:46;1.98;;;1.80;;
4909;SDS011;2470;49.868;8.660;2023-04-24T13:39:11;2.28;;;2.08;;
4909;SDS011;2470;49.868;8.660;2023-04-24T13:41:37;2.50;;;1.80;;
4909;SDS011;2470;49.868;8.660;2023-04-24T13:44:03;3.13;;;2.25;;
4909;SDS011;2470;49.868;8.660;2023-04-24T13:46:29;2.70;;;2.35;;
4909;SDS011;2470;49.868;8.660;2023-04-24T13:48:55;3.97;;;2.55;;
4909;SDS011;2470;49.868;8.660;2023-04-24T13:51:21;2.42;;;1.95;;
4909;SDS011;2470;49.868;8.660;2023-04-24T13:53:47;4.18;;;2.00;;
4909;SDS011;2470;49.868;8.660;2023-04-24T13:56:13;1.77;;;1.63;;
4909;SDS011;2470;49.868;8.660;2023-04-24T13:58:39;3.83;;;2.28;;
4909;SDS011;2470;49.868;8.660;2023-04-24T14:01:04;7.23;;;2.33;;
4909;SDS011;2470;49.868;8.660;2023-04-24T14:03:30;2.87;;;2.20;;
4909;SDS011;2470;49.868;8.660;2023-04-24T14:05:58;2.47;;;2.23;;
4909;SDS011;2470;49.868;8.660;2023-04-24T14:08:23;1.77;;;1.60;;
4909;SDS011;2470;49.868;8.660;2023-04-24T14:10:50;2.53;;;2.07;;
4909;SDS011;2470;49.868;8.660;2023-04-24T14:13:15;1.88;;;1.77;;
4909;SDS011;2470;49.868;8.660;2023-04-24T14:15:41;2.97;;;2.40;;
4909;SDS011;2470;49.868;8.660;2023-04-24T14:18:07;2.07;;;1.90;;
4909;SDS011;2470;49.868;8.660;2023-04-24T14:20:32;3.00;;;2.20;;
4909;SDS011;2470;49.868;8.660;2023-04-24T14:22:58;5.30;;;2.50;;
4909;SDS011;2470;49.868;8.660;2023-04-24T14:25:24;1.80;;;1.70;;
4909;SDS011;2470;49.868;8.660;2023-04-24T14:27:50;4.10;;;2.50;;
4909;SDS011;2470;49.868;8.660;2023-04-24T14:30:15;2.70;;;2.20;;
4909;SDS011;2470;49.868;8.660;2023-04-24T14:32:41;4.27;;;2.00;;
4909;SDS011;2470;49.868;8.660;2023-04-24T14:35:07;4.37;;;2.53;;
4909;SDS011;2470;49.868;8.660;2023-04-24T14:37:32;5.70;;;2.17;;
4909;SDS011;2470;49.868;8.660;2023-04-24T14:39:58;3.07;;;2.33;;
4909;SDS011;2470;49.868;8.660;2023-04-24T14:42:24;2.67;;;1.93;;
4909;SDS011;2470;49.868;8.660;2023-04-24T14:44:49;5.13;;;2.23;;
4909;SDS011;2470;49.868;8.660;2023-04-24T14:47:15;2.83;;;2.17;;
4909;SDS011;2470;49.868;8.660;2023-04-24T14:49:42;2.37;;;1.90;;
4909;SDS011;2470;49.868;8.660;2023-04-24T14:52:08;2.20;;;1.60;;
4909;SDS011;2470;49.868;8.660;2023-04-24T14:54:34;4.80;;;2.37;;
4909;SDS011;2470;49.868;8.660;2023-04-24T14:57:00;3.60;;;1.98;;
4909;SDS011;2470;49.868;8.660;2023-04-24T14:59:27;2.57;;;1.73;;
4909;SDS011;2470;49.868;8.660;2023-04-24T15:01:53;4.10;;;2.03;;
4909;SDS011;2470;49.868;8.660;2023-04-24T15:04:22;2.47;;;1.97;;
4909;SDS011;2470;49.868;8.660;2023-04-24T15:06:51;4.00;;;2.03;;
4909;SDS011;2470;49.868;8.660;2023-04-24T15:09:19;10.37;;;2.60;;
4909;SDS011;2470;49.868;8.660;2023-04-24T15:11:48;3.10;;;1.93;;
4909;SDS011;2470;49.868;8.660;2023-04-24T15:14:15;2.40;;;1.90;;
4909;SDS011;2470;49.868;8.660;2023-04-24T15:16:41;2.77;;;2.17;;
4909;SDS011;2470;49.868;8.660;2023-04-24T15:19:07;3.23;;;2.37;;
4909;SDS011;2470;49.868;8.660;2023-04-24T15:21:33;2.00;;;1.80;;
4909;SDS011;2470;49.868;8.660;2023-04-24T15:24:00;3.67;;;2.03;;
4909;SDS011;2470;49.868;8.660;2023-04-24T15:26:25;3.73;;;2.37;;
4909;SDS011;2470;49.868;8.660;2023-04-24T15:28:51;2.77;;;1.67;;
4909;SDS011;2470;49.868;8.660;2023-04-24T15:31:17;5.23;;;2.33;;
4909;SDS011;2470;49.868;8.660;2023-04-24T15:33:43;2.97;;;1.97;;
4909;SDS011;2470;49.868;8.660;2023-04-24T15:36:09;5.10;;;2.40;;
4909;SDS011;2470;49.868;8.660;2023-04-24T15:38:35;3.00;;;1.98;;